Time;durP1;ratioP1;P1;durP2;ratioP2;P2;SDS_P1;SDS_P2;PMS_P1;PMS_P2;Temp;Humidity;BMP_temperature;BMP_pressure;BME280_temperature;BME280_humidity;BME280_pressure;Samples;Min_cycle;Max_cycle;Signal;HPM_P1;HPM_P2
2022/09/14 00:01:18;;;;;;;3.75;1.58;;;;;;;;;;7397499;19;20460;-74
2022/09/14 00:03:44;;;;;;;1.27;1.08;;;;;;;;;;7399537;19;20010;-74
2022/09/14 00:06:13;;;;;;;2.22;1.20;;;;;;;;;;7398827;19;20371;-74
2022/09/14 00:08:38;;;;;;;4.63;1.73;;;;;;;;;;7397677;19;20117;-75
2022/09/14 00:11:10;;;;;;;2.55;1.67;;;;;;;;;;7397378;19;20067;-74
2022/09/14 00:13:37;;;;;;;1.55;1.40;;;;;;;;;;7398584;19;20023;-74
2022/09/14 00:16:06;;;;;;;3.35;1.45;;;;;;;;;;7395917;19;20006;-74
2022/09/14 00:18:33;;;;;;;1.50;1.40;;;;;;;;;;7398649;19;20011;-74
2022/09/14 00:21:06;;;;;;;1.60;1.27;;;;;;;;;;7396274;19;20007;-76
2022/09/14 00:23:34;;;;;;;1.42;1.23;;;;;;;;;;7395317;19;20010;-74
2022/09/14 00:26:14;;;;;;;2.97;1.42;;;;;;;;;;7398191;19;20010;-76
2022/09/14 00:28:45;;;;;;;3.60;1.23;;;;;;;;;;7396285;19;20019;-74
2022/09/14 00:31:11;;;;;;;1.60;1.50;;;;;;;;;;7395100;19;20014;-74
2022/09/14 00:33:37;;;;;;;1.55;1.23;;;;;;;;;;7397917;19;20007;-76
2022/09/14 00:36:11;;;;;;;1.90;1.13;;;;;;;;;;7397240;19;20362;-74
2022/09/14 00:38:38;;;;;;;2.10;1.52;;;;;;;;;;7396212;19;20014;-74
2022/09/14 00:41:06;;;;;;;11.18;1.65;;;;;;;;;;7395494;19;20094;-74
2022/09/14 00:43:32;;;;;;;1.73;1.40;;;;;;;;;;7395293;19;20002;-76
2022/09/14 00:46:01;;;;;;;1.63;1.40;;;;;;;;;;7398319;19;20023;-74
2022/09/14 00:48:28;;;;;;;3.10;1.90;;;;;;;;;;7397459;19;20030;-74
2022/09/14 00:50:54;;;;;;;1.58;1.33;;;;;;;;;;7396603;19;20346;-74
2022/09/14 00:53:19;;;;;;;2.10;1.67;;;;;;;;;;7397427;19;20013;-74
2022/09/14 00:55:45;;;;;;;2.88;1.80;;;;;;;;;;7395705;19;20020;-74
2022/09/14 00:58:10;;;;;;;2.45;1.63;;;;;;;;;;7396660;19;20660;-74
2022/09/14 01:00:35;;;;;;;2.22;1.40;;;;;;;;;;7392836;19;20039;-75
2022/09/14 01:03:01;;;;;;;4.22;1.58;;;;;;;;;;7396016;19;20107;-74
2022/09/14 01:05:43;;;;;;;1.30;1.20;;;;;;;;;;7395170;19;20066;-75
2022/09/14 01:08:11;;;;;;;2.25;1.58;;;;;;;;;;7392117;19;20019;-73
2022/09/14 01:11:00;;;;;;;2.40;1.40;;;;;;;;;;7392491;19;20130;-73
2022/09/14 01:13:34;;;;;;;3.13;1.50;;;;;;;;;;7394949;19;20533;-73
2022/09/14 01:16:15;;;;;;;3.03;1.40;;;;;;;;;;7396230;19;20031;-75
2022/09/14 01:18:48;;;;;;;1.60;1.35;;;;;;;;;;7394790;19;20340;-73
2022/09/14 01:21:19;;;;;;;1.52;1.40;;;;;;;;;;7394505;19;20022;-73
2022/09/14 01:23:58;;;;;;;2.80;1.70;;;;;;;;;;7396742;19;20002;-76
2022/09/14 01:26:46;;;;;;;1.90;1.80;;;;;;;;;;7395205;19;20032;-73
2022/09/14 01:29:24;;;;;;;2.53;1.40;;;;;;;;;;7391148;19;20007;-73
2022/09/14 01:31:55;;;;;;;3.88;1.88;;;;;;;;;;7394393;19;20051;-73
2022/09/14 01:34:31;;;;;;;3.58;1.60;;;;;;;;;;7397440;19;19999;-76
2022/09/14 01:37:11;;;;;;;4.78;1.77;;;;;;;;;;7392734;19;20545;-73
2022/09/14 01:39:41;;;;;;;2.78;1.27;;;;;;;;;;7394735;19;20028;-73
2022/09/14 01:42:07;;;;;;;3.13;1.90;;;;;;;;;;7394838;19;20022;-73
2022/09/14 01:44:37;;;;;;;4.72;1.50;;;;;;;;;;7393646;19;20379;-76
2022/09/14 01:47:12;;;;;;;2.40;1.80;;;;;;;;;;7394485;19;20007;-76
2022/09/14 01:49:45;;;;;;;1.13;1.02;;;;;;;;;;7393153;19;20021;-73
2022/09/14 01:52:15;;;;;;;1.58;1.38;;;;;;;;;;7393300;19;20029;-73
2022/09/14 01:55:06;;;;;;;1.73;1.60;;;;;;;;;;7397001;19;19995;-74
2022/09/14 01:57:40;;;;;;;3.55;1.60;;;;;;;;;;7393562;19;20009;-73
2022/09/14 02:00:09;;;;;;;4.00;1.95;;;;;;;;;;7390381;19;20493;-73
2022/09/14 02:02:40;;;;;;;2.17;1.60;;;;;;;;;;7390316;19;20018;-75
2022/09/14 02:05:33;;;;;;;2.97;1.40;;;;;;;;;;7394251;19;20006;-76
2022/09/14 02:07:58;;;;;;;1.50;1.33;;;;;;;;;;7394347;19;20006;-74
2022/09/14 02:10:25;;;;;;;1.58;1.45;;;;;;;;;;7390068;19;20047;-76
2022/09/14 02:12:53;;;;;;;1.42;1.00;;;;;;;;;;7392308;19;20022;-74
2022/09/14 02:15:18;;;;;;;2.17;1.33;;;;;;;;;;7389029;19;20025;-74
2022/09/14 02:17:44;;;;;;;3.05;1.77;;;;;;;;;;7392929;19;20310;-74
2022/09/14 02:20:30;;;;;;;3.35;1.80;;;;;;;;;;7392638;19;20023;-74
2022/09/14 02:22:55;;;;;;;;;;;;;;;;;;7396864;19;20014;-74
2022/09/14 02:25:21;;;;;;;1.70;1.20;;;;;;;;;;7391762;19;19918;-74
2022/09/14 02:27:47;;;;;;;1.58;1.30;;;;;;;;;;7394135;19;20022;-74
2022/09/14 02:30:13;;;;;;;3.53;1.80;;;;;;;;;;7392522;19;20014;-74
2022/09/14 02:33:26;;;;;;;2.63;1.60;;;;;;;;;;7391359;19;20014;-74
2022/09/14 02:35:54;;;;;;;3.97;1.90;;;;;;;;;;7389480;19;20458;-73
2022/09/14 02:38:33;;;;;;;3.05;1.85;;;;;;;;;;7390701;19;20064;-78
2022/09/14 02:41:20;;;;;;;2.75;1.63;;;;;;;;;;7391831;19;20007;-78
2022/09/14 02:43:45;;;;;;;2.00;1.77;;;;;;;;;;7391347;19;20010;-78
2022/09/14 02:46:46;;;;;;;3.10;2.10;;;;;;;;;;7389486;19;20022;-78
2022/09/14 02:49:37;;;;;;;2.65;1.75;;;;;;;;;;7390511;19;20014;-78
2022/09/14 02:52:08;;;;;;;3.33;1.90;;;;;;;;;;7386876;19;20066;-81
2022/09/14 02:54:42;;;;;;;4.43;2.15;;;;;;;;;;7390338;19;20550;-78
2022/09/14 02:57:08;;;;;;;3.72;2.08;;;;;;;;;;7392789;19;20431;-78
2022/09/14 02:59:33;;;;;;;2.58;1.83;;;;;;;;;;7392882;19;20014;-79
2022/09/14 03:02:00;;;;;;;2.60;1.88;;;;;;;;;;7390418;19;20007;-79
2022/09/14 03:04:26;;;;;;;2.28;1.80;;;;;;;;;;7393364;19;20093;-78
2022/09/14 03:06:51;;;;;;;2.33;1.92;;;;;;;;;;7393501;19;20018;-80
2022/09/14 03:09:17;;;;;;;2.30;1.73;;;;;;;;;;7389021;19;20097;-80
2022/09/14 03:11:42;;;;;;;2.25;2.03;;;;;;;;;;7389772;19;20512;-79
2022/09/14 03:14:09;;;;;;;1.90;1.63;;;;;;;;;;7392087;19;19991;-82
2022/09/14 03:16:36;;;;;;;2.72;1.80;;;;;;;;;;7389577;19;20081;-71
2022/09/14 03:19:01;;;;;;;2.75;1.95;;;;;;;;;;7388641;19;20486;-71
2022/09/14 03:21:26;;;;;;;1.58;1.40;;;;;;;;;;7390316;19;20010;-71
2022/09/14 03:23:54;;;;;;;3.58;1.88;;;;;;;;;;7392784;19;19990;-71
2022/09/14 03:26:21;;;;;;;1.88;1.48;;;;;;;;;;7390154;19;20335;-71
2022/09/14 03:28:52;;;;;;;1.80;1.48;;;;;;;;;;7390173;19;20010;-71
2022/09/14 03:31:17;;;;;;;5.93;1.60;;;;;;;;;;7390619;19;20023;-71
2022/09/14 03:33:42;;;;;;;2.92;2.17;;;;;;;;;;7391979;19;20017;-70
2022/09/14 03:36:18;;;;;;;3.50;1.25;;;;;;;;;;7391065;19;20337;-76
2022/09/14 03:38:48;;;;;;;4.05;1.52;;;;;;;;;;7388257;19;20438;-78
2022/09/14 03:41:14;;;;;;;3.08;1.77;;;;;;;;;;7387789;19;20010;-77
2022/09/14 03:43:41;;;;;;;3.80;1.75;;;;;;;;;;7391473;19;20006;-77
2022/09/14 03:46:08;;;;;;;5.00;1.77;;;;;;;;;;7391692;19;20002;-77
2022/09/14 03:48:34;;;;;;;3.20;1.63;;;;;;;;;;7388120;19;20011;-77
2022/09/14 03:51:01;;;;;;;2.60;1.90;;;;;;;;;;7389016;19;20377;-77
2022/09/14 03:53:26;;;;;;;3.95;1.80;;;;;;;;;;7391718;19;20289;-77
2022/09/14 03:55:52;;;;;;;4.15;1.50;;;;;;;;;;7392848;19;20473;-77
2022/09/14 03:58:17;;;;;;;2.42;1.60;;;;;;;;;;7388544;19;20018;-77
2022/09/14 04:00:42;;;;;;;1.88;1.67;;;;;;;;;;7391640;19;20374;-77
2022/09/14 04:03:08;;;;;;;3.97;1.45;;;;;;;;;;7391163;19;20336;-77
2022/09/14 04:05:33;;;;;;;1.23;1.13;;;;;;;;;;7386498;19;20066;-77
2022/09/14 04:07:58;;;;;;;1.40;1.27;;;;;;;;;;7387816;19;20084;-77
2022/09/14 04:10:24;;;;;;;2.35;1.83;;;;;;;;;;7389512;19;20010;-77
2022/09/14 04:12:49;;;;;;;2.42;1.63;;;;;;;;;;7391613;19;19999;-77
2022/09/14 04:15:15;;;;;;;2.88;1.77;;;;;;;;;;7388628;19;19994;-77
2022/09/14 04:17:40;;;;;;;1.58;1.48;;;;;;;;;;7387003;19;20076;-77
2022/09/14 04:20:06;;;;;;;1.75;1.40;;;;;;;;;;7390593;19;20201;-77
2022/09/14 04:22:32;;;;;;;2.42;1.60;;;;;;;;;;7391364;19;20006;-77
2022/09/14 04:24:58;;;;;;;2.15;1.45;;;;;;;;;;7387118;19;19991;-77
2022/09/14 04:27:23;;;;;;;3.72;1.88;;;;;;;;;;7386882;19;20003;-77
2022/09/14 04:29:49;;;;;;;2.35;1.70;;;;;;;;;;7391630;19;20649;-77
2022/09/14 04:32:15;;;;;;;2.30;1.30;;;;;;;;;;7392013;19;20031;-77
2022/09/14 04:34:40;;;;;;;1.90;1.48;;;;;;;;;;7389815;19;20006;-78
2022/09/14 04:37:05;;;;;;;2.45;1.63;;;;;;;;;;7389285;19;20458;-77
2022/09/14 04:39:31;;;;;;;3.33;1.80;;;;;;;;;;7389936;19;20010;-77
2022/09/14 04:41:56;;;;;;;2.53;1.77;;;;;;;;;;7397576;19;20006;-76
2022/09/14 04:44:21;;;;;;;2.80;2.17;;;;;;;;;;7394366;19;20017;-78
2022/09/14 04:46:47;;;;;;;1.75;1.30;;;;;;;;;;7394039;19;20017;-81
2022/09/14 04:49:17;;;;;;;2.88;2.20;;;;;;;;;;7402227;19;20010;-80
2022/09/14 04:51:43;;;;;;;2.10;1.67;;;;;;;;;;7400741;19;20006;-81
2022/09/14 04:54:13;;;;;;;2.05;1.77;;;;;;;;;;7400875;19;19999;-81
2022/09/14 04:56:38;;;;;;;4.63;2.20;;;;;;;;;;7398998;19;20281;-81
2022/09/14 04:59:04;;;;;;;2.00;1.80;;;;;;;;;;7395571;19;20458;-81
2022/09/14 05:01:42;;;;;;;2.60;2.33;;;;;;;;;;7395727;19;20031;-81
2022/09/14 05:04:08;;;;;;;2.35;1.58;;;;;;;;;;7395976;19;20011;-81
2022/09/14 05:06:36;;;;;;;2.97;1.80;;;;;;;;;;7394364;19;20017;-81
2022/09/14 05:09:04;;;;;;;2.22;1.70;;;;;;;;;;7390197;19;20387;-81
2022/09/14 05:11:32;;;;;;;2.35;1.73;;;;;;;;;;7392253;19;20014;-80
2022/09/14 05:13:59;;;;;;;3.08;1.90;;;;;;;;;;7394100;19;20126;-78
2022/09/14 05:16:26;;;;;;;1.60;1.50;;;;;;;;;;7393645;19;20014;-79
2022/09/14 05:18:56;;;;;;;2.95;1.90;;;;;;;;;;7390454;19;20006;-82
2022/09/14 05:21:22;;;;;;;4.85;2.25;;;;;;;;;;7400346;19;20010;-84
2022/09/14 05:23:56;;;;;;;3.40;1.92;;;;;;;;;;7400245;19;19999;-83
2022/09/14 05:26:22;;;;;;;6.07;2.17;;;;;;;;;;7400440;19;20122;-82
2022/09/14 05:28:53;;;;;;;4.60;2.17;;;;;;;;;;7393791;19;20052;-80
2022/09/14 05:31:19;;;;;;;2.63;2.10;;;;;;;;;;7397459;19;20010;-81
2022/09/14 05:33:45;;;;;;;1.90;1.70;;;;;;;;;;7397938;19;20965;-80
2022/09/14 05:36:10;;;;;;;3.22;2.17;;;;;;;;;;7395625;19;20006;-80
2022/09/14 05:38:37;;;;;;;2.80;2.05;;;;;;;;;;7393596;19;20026;-80
2022/09/14 05:41:03;;;;;;;2.42;1.60;;;;;;;;;;7393528;19;20599;-80
2022/09/14 05:43:30;;;;;;;3.78;2.47;;;;;;;;;;7389735;19;20014;-80
2022/09/14 05:45:59;;;;;;;3.25;2.38;;;;;;;;;;7388389;19;20006;-81
2022/09/14 05:48:24;;;;;;;1.65;1.48;;;;;;;;;;7398332;19;19987;-81
2022/09/14 05:50:57;;;;;;;3.85;1.92;;;;;;;;;;7394216;19;20490;-82
2022/09/14 05:53:22;;;;;;;1.95;1.75;;;;;;;;;;7394474;19;20486;-82
2022/09/14 05:55:47;;;;;;;3.17;2.00;;;;;;;;;;7398020;19;20015;-82
2022/09/14 05:58:13;;;;;;;1.35;1.25;;;;;;;;;;7393733;19;20027;-81
2022/09/14 06:00:38;;;;;;;2.80;2.10;;;;;;;;;;7394135;19;20574;-81
2022/09/14 06:03:05;;;;;;;4.10;2.00;;;;;;;;;;7396379;19;20009;-83
2022/09/14 06:05:30;;;;;;;2.45;1.80;;;;;;;;;;7392192;19;20015;-81
2022/09/14 06:07:56;;;;;;;2.58;1.70;;;;;;;;;;7394371;19;20014;-82
2022/09/14 06:10:21;;;;;;;2.47;1.58;;;;;;;;;;7392393;19;21040;-82
2022/09/14 06:12:47;;;;;;;1.85;1.55;;;;;;;;;;7394032;19;20482;-84
2022/09/14 06:15:12;;;;;;;3.10;2.03;;;;;;;;;;7395435;19;20070;-80
2022/09/14 06:17:38;;;;;;;5.93;1.77;;;;;;;;;;7395043;19;20391;-79
2022/09/14 06:20:06;;;;;;;2.05;1.65;;;;;;;;;;7390588;19;20332;-79
2022/09/14 06:22:31;;;;;;;2.22;1.73;;;;;;;;;;7392205;19;20007;-83
2022/09/14 06:24:57;;;;;;;2.03;1.83;;;;;;;;;;7393826;19;20009;-82
2022/09/14 06:27:22;;;;;;;2.25;1.85;;;;;;;;;;7394126;19;19990;-81
2022/09/14 06:29:52;;;;;;;9.95;2.50;;;;;;;;;;7391730;19;20044;-81
2022/09/14 06:32:18;;;;;;;2.83;2.10;;;;;;;;;;7392547;19;20521;-81
2022/09/14 06:34:44;;;;;;;3.33;2.05;;;;;;;;;;7393328;19;20014;-81
2022/09/14 06:37:09;;;;;;;6.90;2.50;;;;;;;;;;7390717;19;20006;-81
2022/09/14 06:39:35;;;;;;;8.40;2.08;;;;;;;;;;7393176;19;20010;-81
2022/09/14 06:42:00;;;;;;;3.75;2.08;;;;;;;;;;7393315;19;20003;-81
2022/09/14 06:44:25;;;;;;;3.83;1.80;;;;;;;;;;7394116;19;19995;-80
2022/09/14 06:46:51;;;;;;;3.28;1.90;;;;;;;;;;7390878;19;19997;-80
2022/09/14 06:49:19;;;;;;;4.05;1.63;;;;;;;;;;7391447;19;19994;-80
2022/09/14 06:51:46;;;;;;;3.78;1.77;;;;;;;;;;7391425;19;20007;-80
2022/09/14 06:54:14;;;;;;;2.75;1.63;;;;;;;;;;7394280;19;20006;-80
2022/09/14 06:56:40;;;;;;;2.53;1.48;;;;;;;;;;7392900;19;19995;-80
2022/09/14 06:59:08;;;;;;;3.78;1.70;;;;;;;;;;7388067;19;20014;-80
2022/09/14 07:01:34;;;;;;;1.98;1.40;;;;;;;;;;7394117;19;19995;-80
2022/09/14 07:04:00;;;;;;;3.53;1.75;;;;;;;;;;7393269;19;20007;-80
2022/09/14 07:06:29;;;;;;;1.77;1.20;;;;;;;;;;7394964;19;19999;-79
2022/09/14 07:08:55;;;;;;;2.60;1.42;;;;;;;;;;7390372;19;20006;-79
2022/09/14 07:11:24;;;;;;;5.30;1.30;;;;;;;;;;7394696;19;20030;-80
2022/09/14 07:13:50;;;;;;;1.55;0.90;;;;;;;;;;7392092;19;20017;-79
2022/09/14 07:16:15;;;;;;;2.00;1.20;;;;;;;;;;7393806;19;20003;-80
2022/09/14 07:18:41;;;;;;;2.05;1.13;;;;;;;;;;7390696;19;20003;-79
2022/09/14 07:21:08;;;;;;;1.88;0.90;;;;;;;;;;7392774;19;20350;-80
2022/09/14 07:23:36;;;;;;;1.42;0.93;;;;;;;;;;7392349;19;20003;-80
2022/09/14 07:26:09;;;;;;;1.45;0.85;;;;;;;;;;7388711;19;20029;-80
2022/09/14 07:28:35;;;;;;;1.48;0.90;;;;;;;;;;7387839;19;19994;-79
2022/09/14 07:31:02;;;;;;;1.90;0.77;;;;;;;;;;7392111;19;20143;-80
2022/09/14 07:33:27;;;;;;;1.95;0.73;;;;;;;;;;7393763;19;20382;-79
2022/09/14 07:35:52;;;;;;;2.90;1.13;;;;;;;;;;7388504;19;20007;-80
2022/09/14 07:38:18;;;;;;;2.15;1.00;;;;;;;;;;7390677;19;20010;-80
2022/09/14 07:40:44;;;;;;;1.95;0.90;;;;;;;;;;7392376;19;20006;-80
2022/09/14 07:43:10;;;;;;;2.47;0.70;;;;;;;;;;7387903;19;20102;-79
2022/09/14 07:45:36;;;;;;;4.38;0.95;;;;;;;;;;7391790;19;19999;-80
2022/09/14 07:48:02;;;;;;;2.55;0.95;;;;;;;;;;7388579;19;20016;-79
2022/09/14 07:50:27;;;;;;;1.83;0.93;;;;;;;;;;7387836;19;20006;-80
2022/09/14 07:52:53;;;;;;;2.35;0.90;;;;;;;;;;7390635;19;20010;-81
2022/09/14 07:55:18;;;;;;;1.23;0.90;;;;;;;;;;7395224;19;20010;-81
2022/09/14 07:57:45;;;;;;;4.13;0.88;;;;;;;;;;7392872;19;20010;-80
2022/09/14 08:00:11;;;;;;;2.25;0.90;;;;;;;;;;7391258;19;20003;-79
2022/09/14 08:02:36;;;;;;;3.13;0.90;;;;;;;;;;7390479;19;20075;-79
2022/09/14 08:05:02;;;;;;;2.30;0.70;;;;;;;;;;7380650;19;20010;-78
2022/09/14 08:07:27;;;;;;;3.47;0.93;;;;;;;;;;7388232;19;20477;-78
2022/09/14 08:09:53;;;;;;;3.17;0.90;;;;;;;;;;7391268;19;20013;-78
2022/09/14 08:12:18;;;;;;;2.03;0.90;;;;;;;;;;7392405;19;19998;-78
2022/09/14 08:14:43;;;;;;;2.13;1.00;;;;;;;;;;7391950;19;19999;-78
2022/09/14 08:17:11;;;;;;;1.55;0.82;;;;;;;;;;7399265;19;20597;-77
2022/09/14 08:19:37;;;;;;;2.50;1.17;;;;;;;;;;7395437;19;20011;-78
2022/09/14 08:22:03;;;;;;;2.00;0.82;;;;;;;;;;7400515;19;20352;-78
2022/09/14 08:24:29;;;;;;;3.78;1.00;;;;;;;;;;7397450;19;20044;-77
2022/09/14 08:26:54;;;;;;;2.97;0.70;;;;;;;;;;7399081;19;20494;-78
2022/09/14 08:29:20;;;;;;;5.40;0.90;;;;;;;;;;7396790;19;20018;-79
2022/09/14 08:31:46;;;;;;;1.65;1.00;;;;;;;;;;7399123;19;19999;-78
2022/09/14 08:34:13;;;;;;;6.03;0.90;;;;;;;;;;7399122;19;20002;-78
2022/09/14 08:36:40;;;;;;;4.20;1.17;;;;;;;;;;7399627;19;20017;-79
2022/09/14 08:39:09;;;;;;;3.03;1.10;;;;;;;;;;7391631;19;20420;-74
2022/09/14 08:41:55;;;;;;;3.22;0.80;;;;;;;;;;7396172;19;20471;-74
2022/09/14 08:44:29;;;;;;;3.63;1.42;;;;;;;;;;7394690;19;19995;-73
2022/09/14 08:47:11;;;;;;;1.88;0.80;;;;;;;;;;7399714;19;20018;-74
2022/09/14 08:50:04;;;;;;;5.80;1.02;;;;;;;;;;7388844;19;20014;-74
2022/09/14 08:52:42;;;;;;;2.92;1.02;;;;;;;;;;7399036;19;20021;-74
2022/09/14 08:55:29;;;;;;;5.10;1.08;;;;;;;;;;7391602;19;20002;-73
2022/09/14 08:57:57;;;;;;;2.70;1.00;;;;;;;;;;7390444;19;19998;-76
2022/09/14 09:00:28;;;;;;;1.15;0.82;;;;;;;;;;7392141;19;21230;-75
2022/09/14 09:03:26;;;;;;;1.70;0.88;;;;;;;;;;7393549;19;20066;-75
2022/09/14 09:06:11;;;;;;;1.67;0.80;;;;;;;;;;7392210;19;20003;-74
2022/09/14 09:09:27;;;;;;;1.35;0.90;;;;;;;;;;7388789;19;20006;-75
2022/09/14 09:11:54;;;;;;;2.92;1.00;;;;;;;;;;7390910;19;20024;-75
2022/09/14 09:14:42;;;;;;;2.22;0.93;;;;;;;;;;7395297;19;20474;-74
2022/09/14 09:17:29;;;;;;;7.47;0.90;;;;;;;;;;7393472;19;20023;-73
2022/09/14 09:20:13;;;;;;;1.48;0.80;;;;;;;;;;7394160;19;20324;-75
2022/09/14 09:22:49;;;;;;;2.83;0.90;;;;;;;;;;7395768;19;20002;-75
2022/09/14 09:25:23;;;;;;;2.30;0.70;;;;;;;;;;7390332;19;20480;-72
2022/09/14 09:27:52;;;;;;;2.53;0.80;;;;;;;;;;7394488;19;20002;-72
2022/09/14 09:30:18;;;;;;;4.47;1.00;;;;;;;;;;7390966;19;20015;-73
2022/09/14 09:32:43;;;;;;;3.35;0.80;;;;;;;;;;7398353;19;20027;-75
2022/09/14 09:35:14;;;;;;;1.67;0.95;;;;;;;;;;7394503;19;19999;-76
2022/09/14 09:37:40;;;;;;;2.97;0.80;;;;;;;;;;7396160;19;20006;-76
2022/09/14 09:40:14;;;;;;;3.65;0.82;;;;;;;;;;7394174;19;20709;-74
2022/09/14 09:43:03;;;;;;;1.27;0.60;;;;;;;;;;7396378;19;20006;-73
2022/09/14 09:45:49;;;;;;;1.73;0.65;;;;;;;;;;7388244;19;20047;-73
2022/09/14 09:48:17;;;;;;;3.20;0.88;;;;;;;;;;7394179;19;20017;-73
2022/09/14 09:51:03;;;;;;;1.80;1.02;;;;;;;;;;7397527;19;20011;-74
2022/09/14 09:53:28;;;;;;;1.98;0.90;;;;;;;;;;7390422;19;20382;-74
2022/09/14 09:55:55;;;;;;;3.92;0.85;;;;;;;;;;7395121;19;20007;-74
2022/09/14 09:58:26;;;;;;;5.80;1.27;;;;;;;;;;7389858;19;20018;-74
2022/09/14 10:01:16;;;;;;;4.70;1.00;;;;;;;;;;7391876;19;20676;-74
2022/09/14 10:03:41;;;;;;;6.45;1.27;;;;;;;;;;7395588;19;20002;-74
2022/09/14 10:06:10;;;;;;;4.28;0.95;;;;;;;;;;7391355;19;19994;-74
2022/09/14 10:08:41;;;;;;;3.80;0.88;;;;;;;;;;7391382;19;20173;-75
2022/09/14 10:11:25;;;;;;;4.60;0.95;;;;;;;;;;7394320;19;20014;-75
2022/09/14 10:13:51;;;;;;;2.70;1.00;;;;;;;;;;7395193;19;20011;-75
2022/09/14 10:16:19;;;;;;;3.55;0.82;;;;;;;;;;7396162;19;20110;-74
2022/09/14 10:18:50;;;;;;;1.23;0.88;;;;;;;;;;7387796;19;20070;-76
2022/09/14 10:21:17;;;;;;;2.65;0.93;;;;;;;;;;7390466;19;20364;-74
2022/09/14 10:23:43;;;;;;;2.70;0.60;;;;;;;;;;7387928;19;20014;-74
2022/09/14 10:26:11;;;;;;;2.92;0.68;;;;;;;;;;7391239;19;20014;-76
2022/09/14 10:28:42;;;;;;;3.13;0.95;;;;;;;;;;7391762;19;20010;-75
2022/09/14 10:31:19;;;;;;;1.25;0.80;;;;;;;;;;7392589;19;20032;-74
2022/09/14 10:33:46;;;;;;;2.75;0.90;;;;;;;;;;7394757;19;20010;-74
2022/09/14 10:36:22;;;;;;;1.55;1.00;;;;;;;;;;7395692;19;20665;-74
2022/09/14 10:38:57;;;;;;;3.65;1.00;;;;;;;;;;7391291;19;20007;-75
2022/09/14 10:41:38;;;;;;;2.53;1.00;;;;;;;;;;7394379;19;20013;-75
2022/09/14 10:44:25;;;;;;;3.42;0.90;;;;;;;;;;7395384;19;20014;-75
2022/09/14 10:46:56;;;;;;;1.60;0.73;;;;;;;;;;7393588;19;20021;-75
2022/09/14 10:49:40;;;;;;;2.58;1.10;;;;;;;;;;7388681;19;20006;-75
2022/09/14 10:52:19;;;;;;;2.65;0.73;;;;;;;;;;7390983;19;20070;-75
2022/09/14 10:55:02;;;;;;;1.55;0.85;;;;;;;;;;7394073;19;20018;-75
2022/09/14 10:57:50;;;;;;;5.90;1.02;;;;;;;;;;7386649;19;20017;-75
2022/09/14 11:00:19;;;;;;;8.95;1.00;;;;;;;;;;7389411;19;20063;-74
2022/09/14 11:03:20;;;;;;;3.50;0.80;;;;;;;;;;7386979;19;20070;-74
2022/09/14 11:06:01;;;;;;;2.38;0.90;;;;;;;;;;7389705;19;20022;-74
2022/09/14 11:08:45;;;;;;;2.05;1.00;;;;;;;;;;7393862;19;20050;-75
2022/09/14 11:11:16;;;;;;;4.57;0.88;;;;;;;;;;7390775;19;20007;-76
2022/09/14 11:14:01;;;;;;;1.63;0.90;;;;;;;;;;7391492;19;20022;-75
2022/09/14 11:16:58;;;;;;;1.58;0.90;;;;;;;;;;7393421;19;20100;-73
2022/09/14 11:19:26;;;;;;;6.28;1.20;;;;;;;;;;7383693;19;19999;-74
2022/09/14 11:22:04;;;;;;;1.85;0.90;;;;;;;;;;7389553;19;20072;-74
2022/09/14 11:24:44;;;;;;;2.78;0.82;;;;;;;;;;7392980;19;20775;-74
2022/09/14 11:27:30;;;;;;;3.17;1.08;;;;;;;;;;7392784;19;19994;-74
2022/09/14 11:30:03;;;;;;;3.25;1.00;;;;;;;;;;7389977;19;20010;-74
2022/09/14 11:32:36;;;;;;;4.55;1.38;;;;;;;;;;7385839;19;20390;-74
2022/09/14 11:35:16;;;;;;;2.22;0.90;;;;;;;;;;7390668;19;20021;-75
2022/09/14 11:37:48;;;;;;;4.70;1.15;;;;;;;;;;7391612;19;20045;-74
2022/09/14 11:40:29;;;;;;;1.60;1.00;;;;;;;;;;7391312;19;20548;-75
2022/09/14 11:42:59;;;;;;;5.28;1.27;;;;;;;;;;7391337;19;20477;-74
2022/09/14 11:45:50;;;;;;;1.90;0.85;;;;;;;;;;7391257;19;20010;-74
2022/09/14 11:48:31;;;;;;;4.30;1.00;;;;;;;;;;7388583;19;20011;-74
2022/09/14 11:51:10;;;;;;;2.35;0.80;;;;;;;;;;7399466;19;19999;-74
2022/09/14 11:53:35;;;;;;;2.92;0.93;;;;;;;;;;7397884;19;20014;-74
2022/09/14 11:56:01;;;;;;;2.72;1.20;;;;;;;;;;7397986;19;19999;-74
2022/09/14 11:58:30;;;;;;;3.92;0.85;;;;;;;;;;7396192;19;20081;-74
2022/09/14 12:01:27;;;;;;;2.05;0.98;;;;;;;;;;7396871;19;20343;-74
2022/09/14 12:04:04;;;;;;;2.28;1.00;;;;;;;;;;7392655;19;20006;-75
2022/09/14 12:06:29;;;;;;;2.47;1.00;;;;;;;;;;7398813;19;20491;-74
2022/09/14 12:09:21;;;;;;;3.97;1.05;;;;;;;;;;7395010;19;20010;-74
2022/09/14 12:11:55;;;;;;;2.80;1.10;;;;;;;;;;7400128;19;20002;-73
2022/09/14 12:14:27;;;;;;;1.13;0.90;;;;;;;;;;7393704;19;20006;-73
2022/09/14 12:17:14;;;;;;;2.33;1.00;;;;;;;;;;7398991;19;20458;-74
2022/09/14 12:19:41;;;;;;;2.30;1.02;;;;;;;;;;7390837;19;20010;-74
2022/09/14 12:22:27;;;;;;;1.73;1.10;;;;;;;;;;7392641;19;20017;-72
2022/09/14 12:24:58;;;;;;;4.22;1.00;;;;;;;;;;7388952;19;20033;-74
2022/09/14 12:27:24;;;;;;;1.88;0.90;;;;;;;;;;7390075;19;20046;-74
2022/09/14 12:29:50;;;;;;;2.83;0.80;;;;;;;;;;7394338;19;20006;-74
2022/09/14 12:32:42;;;;;;;3.92;1.08;;;;;;;;;;7396825;19;20447;-75
2022/09/14 12:35:38;;;;;;;1.15;0.80;;;;;;;;;;7396381;19;20019;-74
2022/09/14 12:38:28;;;;;;;3.63;0.90;;;;;;;;;;7394547;19;20007;-75
2022/09/14 12:41:01;;;;;;;1.40;1.08;;;;;;;;;;7396854;19;20009;-75
2022/09/14 12:43:32;;;;;;;1.83;1.00;;;;;;;;;;7396394;19;20010;-74
2022/09/14 12:46:21;;;;;;;1.73;0.77;;;;;;;;;;7395389;19;20003;-75
2022/09/14 12:48:46;;;;;;;4.65;1.10;;;;;;;;;;7397973;19;20049;-74
2022/09/14 12:51:36;;;;;;;3.70;1.10;;;;;;;;;;7395274;19;19994;-74
2022/09/14 12:54:07;;;;;;;4.85;0.82;;;;;;;;;;7397560;19;20007;-74
2022/09/14 12:56:57;;;;;;;3.00;1.27;;;;;;;;;;7398937;19;20015;-74
2022/09/14 12:59:29;;;;;;;4.50;0.93;;;;;;;;;;7392427;19;20003;-74
2022/09/14 13:02:03;;;;;;;1.95;1.15;;;;;;;;;;7394647;19;20016;-74
2022/09/14 13:04:33;;;;;;;2.20;0.90;;;;;;;;;;7397714;19;20006;-74
2022/09/14 13:07:03;;;;;;;4.63;1.25;;;;;;;;;;7397481;19;19999;-74
2022/09/14 13:09:30;;;;;;;1.38;0.88;;;;;;;;;;7392249;19;20064;-74
2022/09/14 13:12:08;;;;;;;2.35;0.90;;;;;;;;;;7393989;19;19995;-74
2022/09/14 13:14:46;;;;;;;4.78;1.23;;;;;;;;;;7397917;19;19994;-74
2022/09/14 13:17:15;;;;;;;1.20;0.70;;;;;;;;;;7396823;19;20106;-74
2022/09/14 13:19:41;;;;;;;3.20;1.08;;;;;;;;;;7398135;19;20014;-74
2022/09/14 13:22:18;;;;;;;2.35;1.15;;;;;;;;;;7393684;19;20466;-75
2022/09/14 13:24:45;;;;;;;2.55;1.10;;;;;;;;;;7394545;19;20014;-73
2022/09/14 13:27:19;;;;;;;2.25;0.90;;;;;;;;;;7396279;19;20027;-73
2022/09/14 13:29:44;;;;;;;4.93;1.10;;;;;;;;;;7396517;19;19995;-74
2022/09/14 13:32:18;;;;;;;1.92;0.88;;;;;;;;;;7392966;19;20010;-74
2022/09/14 13:34:44;;;;;;;3.97;1.10;;;;;;;;;;7392246;19;20037;-75
2022/09/14 13:37:13;;;;;;;2.40;0.90;;;;;;;;;;7394215;19;20050;-76
2022/09/14 13:39:40;;;;;;;1.55;0.93;;;;;;;;;;7394940;19;20089;-75
2022/09/14 13:42:07;;;;;;;3.13;1.05;;;;;;;;;;7392538;19;20043;-74
2022/09/14 13:44:44;;;;;;;3.58;0.82;;;;;;;;;;7389591;19;20002;-73
2022/09/14 13:47:12;;;;;;;2.88;0.90;;;;;;;;;;7396211;19;20028;-74
2022/09/14 13:49:39;;;;;;;1.30;0.80;;;;;;;;;;7395550;19;19998;-73
2022/09/14 13:52:28;;;;;;;1.63;1.00;;;;;;;;;;7393000;19;20014;-73
2022/09/14 13:55:21;;;;;;;4.80;0.82;;;;;;;;;;7396794;19;20358;-73
2022/09/14 13:58:08;;;;;;;1.98;1.00;;;;;;;;;;7396427;19;20336;-71
2022/09/14 14:00:52;;;;;;;0.95;0.80;;;;;;;;;;7389874;19;20027;-72
2022/09/14 14:03:25;;;;;;;3.35;0.80;;;;;;;;;;7390560;19;20011;-71
2022/09/14 14:05:50;;;;;;;4.35;0.93;;;;;;;;;;7391226;19;20013;-72
2022/09/14 14:08:30;;;;;;;1.58;0.75;;;;;;;;;;7388772;19;20007;-71
2022/09/14 14:10:56;;;;;;;1.35;0.80;;;;;;;;;;7394280;19;20040;-71
2022/09/14 14:13:30;;;;;;;4.88;1.05;;;;;;;;;;7389164;19;20017;-72
2022/09/14 14:16:20;;;;;;;3.20;1.00;;;;;;;;;;7394720;19;20009;-71
2022/09/14 14:18:52;;;;;;;2.72;0.73;;;;;;;;;;7390966;19;20124;-73
2022/09/14 14:21:20;;;;;;;1.70;0.98;;;;;;;;;;7391805;19;20015;-72
2022/09/14 14:23:46;;;;;;;2.42;0.90;;;;;;;;;;7393351;19;20009;-73
2022/09/14 14:26:23;;;;;;;1.65;0.82;;;;;;;;;;7390410;19;20021;-73
2022/09/14 14:28:48;;;;;;;3.20;0.88;;;;;;;;;;7390599;19;20006;-73
2022/09/14 14:31:18;;;;;;;2.85;0.90;;;;;;;;;;7389692;19;20010;-73
2022/09/14 14:33:49;;;;;;;1.77;0.90;;;;;;;;;;7391423;19;20482;-73
2022/09/14 14:36:17;;;;;;;3.10;1.00;;;;;;;;;;7392677;19;20017;-73
2022/09/14 14:38:43;;;;;;;4.38;0.80;;;;;;;;;;7386155;19;20005;-75
2022/09/14 14:41:16;;;;;;;4.90;0.73;;;;;;;;;;7394035;19;20006;-75
2022/09/14 14:43:48;;;;;;;0.90;0.38;;;;;;;;;;7390853;19;20641;-75
2022/09/14 14:46:15;;;;;;;2.70;0.60;;;;;;;;;;7382782;19;20019;-75
2022/09/14 14:48:40;;;;;;;0.82;0.38;;;;;;;;;;7389691;19;20126;-75
2022/09/14 14:51:05;;;;;;;1.38;0.50;;;;;;;;;;7379112;19;20467;-74
2022/09/14 14:53:31;;;;;;;1.60;0.50;;;;;;;;;;7387589;19;20069;-74
2022/09/14 14:55:57;;;;;;;2.50;0.55;;;;;;;;;;7392366;19;20021;-75
2022/09/14 14:58:22;;;;;;;1.05;0.50;;;;;;;;;;7387747;19;20042;-74
2022/09/14 15:00:48;;;;;;;1.13;0.50;;;;;;;;;;7389716;19;20011;-74
2022/09/14 15:03:14;;;;;;;3.72;0.63;;;;;;;;;;7386173;19;20071;-74
2022/09/14 15:05:42;;;;;;;3.85;0.50;;;;;;;;;;7393150;19;20049;-75
2022/09/14 15:08:12;;;;;;;1.30;0.60;;;;;;;;;;7386888;19;20384;-73